sensor_id;sensor_type;location;lat;lon;timestamp;temperature;humidity
51996;DHT22;38010;53.264;6.592;2023-03-05T00:01:21;11.10;99.90
51996;DHT22;38010;53.264;6.592;2023-03-05T00:03:49;11.10;99.90
51996;DHT22;38010;53.264;6.592;2023-03-05T00:06:20;11.10;99.90
51996;DHT22;38010;53.264;6.592;2023-03-05T00:08:47;11.10;99.90
51996;DHT22;38010;53.264;6.592;2023-03-05T00:11:14;11.10;99.90
51996;DHT22;38010;53.264;6.592;2023-03-05T00:13:40;11.10;99.90
51996;DHT22;38010;53.264;6.592;2023-03-05T00:16:10;11.10;99.90
51996;DHT22;38010;53.264;6.592;2023-03-05T00:18:37;11.10;99.90
51996;DHT22;38010;53.264;6.592;2023-03-05T00:21:04;11.10;99.90
51996;DHT22;38010;53.264;6.592;2023-03-05T00:23:30;11.10;99.90
51996;DHT22;38010;53.264;6.592;2023-03-05T00:25:55;11.10;99.90
51996;DHT22;38010;53.264;6.592;2023-03-05T00:28:21;11.10;99.90
51996;DHT22;38010;53.264;6.592;2023-03-05T00:30:47;11.10;99.90
51996;DHT22;38010;53.264;6.592;2023-03-05T00:33:13;11.10;99.90
51996;DHT22;38010;53.264;6.592;2023-03-05T00:35:44;11.10;99.90
51996;DHT22;38010;53.264;6.592;2023-03-05T00:38:11;11.10;99.90
51996;DHT22;38010;53.264;6.592;2023-03-05T00:40:38;11.10;99.90
51996;DHT22;38010;53.264;6.592;2023-03-05T00:43:05;11.10;99.90
51996;DHT22;38010;53.264;6.592;2023-03-05T00:45:32;11.10;99.90
51996;DHT22;38010;53.264;6.592;2023-03-05T00:47:58;11.00;99.90
51996;DHT22;38010;53.264;6.592;2023-03-05T00:50:25;11.00;99.90
51996;DHT22;38010;53.264;6.592;2023-03-05T00:52:52;11.00;99.90
51996;DHT22;38010;53.264;6.592;2023-03-05T00:55:17;11.00;99.90
51996;DHT22;38010;53.264;6.592;2023-03-05T00:57:43;11.10;99.90
51996;DHT22;38010;53.264;6.592;2023-03-05T01:00:10;11.00;99.90
51996;DHT22;38010;53.264;6.592;2023-03-05T01:02:36;11.10;99.90
51996;DHT22;38010;53.264;6.592;2023-03-05T01:05:02;11.00;99.90
51996;DHT22;38010;53.264;6.592;2023-03-05T01:07:28;11.00;99.90
51996;DHT22;38010;53.264;6.592;2023-03-05T01:09:54;11.10;99.90
51996;DHT22;38010;53.264;6.592;2023-03-05T01:12:19;11.00;99.90
51996;DHT22;38010;53.264;6.592;2023-03-05T01:14:45;11.00;99.90
51996;DHT22;38010;53.264;6.592;2023-03-05T01:17:11;11.00;99.90
51996;DHT22;38010;53.264;6.592;2023-03-05T01:19:37;11.10;99.90
51996;DHT22;38010;53.264;6.592;2023-03-05T01:22:02;11.00;99.90
51996;DHT22;38010;53.264;6.592;2023-03-05T01:24:30;11.00;99.90
51996;DHT22;38010;53.264;6.592;2023-03-05T01:26:55;11.00;99.90
51996;DHT22;38010;53.264;6.592;2023-03-05T01:29:22;11.00;99.90
51996;DHT22;38010;53.264;6.592;2023-03-05T01:31:47;11.00;99.90
51996;DHT22;38010;53.264;6.592;2023-03-05T01:34:13;11.00;99.90
51996;DHT22;38010;53.264;6.592;2023-03-05T01:36:41;11.00;99.90
51996;DHT22;38010;53.264;6.592;2023-03-05T01:39:07;11.00;99.90
51996;DHT22;38010;53.264;6.592;2023-03-05T01:41:34;11.00;99.90
51996;DHT22;38010;53.264;6.592;2023-03-05T01:44:00;11.00;99.90
51996;DHT22;38010;53.264;6.592;2023-03-05T01:46:30;11.00;99.90
51996;DHT22;38010;53.264;6.592;2023-03-05T01:52:06;11.00;99.90
51996;DHT22;38010;53.264;6.592;2023-03-05T01:54:36;11.10;99.90
51996;DHT22;38010;53.264;6.592;2023-03-05T01:57:13;11.00;99.90
51996;DHT22;38010;53.264;6.592;2023-03-05T01:59:41;10.90;99.90
51996;DHT22;38010;53.264;6.592;2023-03-05T02:02:08;11.10;99.90
51996;DHT22;38010;53.264;6.592;2023-03-05T02:04:41;11.00;99.90
51996;DHT22;38010;53.264;6.592;2023-03-05T02:07:08;11.00;99.90
51996;DHT22;38010;53.264;6.592;2023-03-05T02:09:39;11.00;99.90
51996;DHT22;38010;53.264;6.592;2023-03-05T02:12:06;11.00;99.90
51996;DHT22;38010;53.264;6.592;2023-03-05T02:14:33;11.00;99.90
51996;DHT22;38010;53.264;6.592;2023-03-05T02:19:25;11.00;99.90
51996;DHT22;38010;53.264;6.592;2023-03-05T02:21:51;11.00;99.90
51996;DHT22;38010;53.264;6.592;2023-03-05T02:24:35;11.00;99.90
51996;DHT22;38010;53.264;6.592;2023-03-05T02:27:02;11.00;99.90
51996;DHT22;38010;53.264;6.592;2023-03-05T02:29:29;11.00;99.90
51996;DHT22;38010;53.264;6.592;2023-03-05T02:31:56;11.00;99.90
51996;DHT22;38010;53.264;6.592;2023-03-05T02:34:22;11.00;99.90
51996;DHT22;38010;53.264;6.592;2023-03-05T02:36:48;11.00;99.90
51996;DHT22;38010;53.264;6.592;2023-03-05T02:39:15;11.00;99.90
51996;DHT22;38010;53.264;6.592;2023-03-05T02:41:41;11.00;99.90
51996;DHT22;38010;53.264;6.592;2023-03-05T02:44:07;11.00;99.90
51996;DHT22;38010;53.264;6.592;2023-03-05T02:46:33;11.00;99.90
51996;DHT22;38010;53.264;6.592;2023-03-05T02:48:59;11.00;99.90
51996;DHT22;38010;53.264;6.592;2023-03-05T02:51:24;11.00;99.90
51996;DHT22;38010;53.264;6.592;2023-03-05T02:53:50;11.00;99.90
51996;DHT22;38010;53.264;6.592;2023-03-05T02:56:16;11.00;99.90
51996;DHT22;38010;53.264;6.592;2023-03-05T02:58:42;10.90;99.90
51996;DHT22;38010;53.264;6.592;2023-03-05T03:01:08;10.90;99.90
51996;DHT22;38010;53.264;6.592;2023-03-05T03:03:35;11.00;99.90
51996;DHT22;38010;53.264;6.592;2023-03-05T03:06:01;10.90;99.90
51996;DHT22;38010;53.264;6.592;2023-03-05T03:08:27;10.90;99.90
51996;DHT22;38010;53.264;6.592;2023-03-05T03:10:52;10.90;99.90
51996;DHT22;38010;53.264;6.592;2023-03-05T03:13:22;10.90;99.90
51996;DHT22;38010;53.264;6.592;2023-03-05T03:15:48;11.00;99.90
51996;DHT22;38010;53.264;6.592;2023-03-05T03:18:14;10.90;99.90
51996;DHT22;38010;53.264;6.592;2023-03-05T03:20:41;11.00;99.90
51996;DHT22;38010;53.264;6.592;2023-03-05T03:23:06;10.90;99.90
51996;DHT22;38010;53.264;6.592;2023-03-05T03:25:33;11.00;99.90
51996;DHT22;38010;53.264;6.592;2023-03-05T03:27:59;10.90;99.90
51996;DHT22;38010;53.264;6.592;2023-03-05T03:30:25;10.90;99.90
51996;DHT22;38010;53.264;6.592;2023-03-05T03:32:51;10.90;99.90
51996;DHT22;38010;53.264;6.592;2023-03-05T03:35:17;10.90;99.90
51996;DHT22;38010;53.264;6.592;2023-03-05T03:37:43;11.00;99.90
51996;DHT22;38010;53.264;6.592;2023-03-05T03:40:10;10.90;99.90
51996;DHT22;38010;53.264;6.592;2023-03-05T03:42:36;10.90;99.90
51996;DHT22;38010;53.264;6.592;2023-03-05T03:45:03;10.90;99.90
51996;DHT22;38010;53.264;6.592;2023-03-05T03:47:30;11.00;99.90
51996;DHT22;38010;53.264;6.592;2023-03-05T03:49:55;10.90;99.90
51996;DHT22;38010;53.264;6.592;2023-03-05T03:52:21;10.90;99.90
51996;DHT22;38010;53.264;6.592;2023-03-05T03:54:48;10.90;99.90
51996;DHT22;38010;53.264;6.592;2023-03-05T03:57:15;10.90;99.90
51996;DHT22;38010;53.264;6.592;2023-03-05T03:59:40;10.90;99.90
51996;DHT22;38010;53.264;6.592;2023-03-05T04:02:06;10.90;99.90
51996;DHT22;38010;53.264;6.592;2023-03-05T04:04:32;10.90;99.90
51996;DHT22;38010;53.264;6.592;2023-03-05T04:06:58;10.90;99.90
51996;DHT22;38010;53.264;6.592;2023-03-05T04:11:50;10.90;99.90
51996;DHT22;38010;53.264;6.592;2023-03-05T04:14:15;10.90;99.90
51996;DHT22;38010;53.264;6.592;2023-03-05T04:16:41;10.90;99.90
51996;DHT22;38010;53.264;6.592;2023-03-05T04:19:07;10.90;99.90
51996;DHT22;38010;53.264;6.592;2023-03-05T04:21:32;10.90;99.90
51996;DHT22;38010;53.264;6.592;2023-03-05T04:23:58;10.90;99.90
51996;DHT22;38010;53.264;6.592;2023-03-05T04:26:24;10.90;99.90
51996;DHT22;38010;53.264;6.592;2023-03-05T04:28:50;10.90;99.90
51996;DHT22;38010;53.264;6.592;2023-03-05T04:31:15;10.90;99.90
51996;DHT22;38010;53.264;6.592;2023-03-05T04:36:08;10.90;99.90
51996;DHT22;38010;53.264;6.592;2023-03-05T04:38:33;10.90;99.90
51996;DHT22;38010;53.264;6.592;2023-03-05T04:40:59;10.90;99.90
51996;DHT22;38010;53.264;6.592;2023-03-05T04:43:25;10.90;99.90
51996;DHT22;38010;53.264;6.592;2023-03-05T04:45:50;10.90;99.90
51996;DHT22;38010;53.264;6.592;2023-03-05T04:48:16;10.90;99.90
51996;DHT22;38010;53.264;6.592;2023-03-05T04:50:43;10.90;99.90
51996;DHT22;38010;53.264;6.592;2023-03-05T04:53:09;10.90;99.90
51996;DHT22;38010;53.264;6.592;2023-03-05T04:55:34;10.90;99.90
51996;DHT22;38010;53.264;6.592;2023-03-05T04:58:00;10.90;99.90
51996;DHT22;38010;53.264;6.592;2023-03-05T05:00:26;10.90;99.90
51996;DHT22;38010;53.264;6.592;2023-03-05T05:02:51;10.90;99.90
51996;DHT22;38010;53.264;6.592;2023-03-05T05:05:23;10.90;99.90
51996;DHT22;38010;53.264;6.592;2023-03-05T05:07:52;10.90;99.90
51996;DHT22;38010;53.264;6.592;2023-03-05T05:10:18;10.90;99.90
51996;DHT22;38010;53.264;6.592;2023-03-05T05:12:43;10.90;99.90
51996;DHT22;38010;53.264;6.592;2023-03-05T05:15:10;10.90;99.90
51996;DHT22;38010;53.264;6.592;2023-03-05T05:17:36;10.90;99.90
51996;DHT22;38010;53.264;6.592;2023-03-05T05:20:04;10.90;99.90
51996;DHT22;38010;53.264;6.592;2023-03-05T05:22:33;10.90;99.90
51996;DHT22;38010;53.264;6.592;2023-03-05T05:24:59;10.90;99.90
51996;DHT22;38010;53.264;6.592;2023-03-05T05:27:24;10.90;99.90
51996;DHT22;38010;53.264;6.592;2023-03-05T05:29:50;10.90;99.90
51996;DHT22;38010;53.264;6.592;2023-03-05T05:32:18;10.90;99.90
51996;DHT22;38010;53.264;6.592;2023-03-05T05:34:44;10.90;99.90
51996;DHT22;38010;53.264;6.592;2023-03-05T05:37:10;10.90;99.90
51996;DHT22;38010;53.264;6.592;2023-03-05T05:39:35;10.90;99.90
51996;DHT22;38010;53.264;6.592;2023-03-05T05:42:01;10.90;99.90
51996;DHT22;38010;53.264;6.592;2023-03-05T05:44:27;10.90;99.90
51996;DHT22;38010;53.264;6.592;2023-03-05T05:46:53;10.90;99.90
51996;DHT22;38010;53.264;6.592;2023-03-05T05:49:19;10.90;99.90
51996;DHT22;38010;53.264;6.592;2023-03-05T05:51:44;10.80;99.90
51996;DHT22;38010;53.264;6.592;2023-03-05T05:54:12;10.90;99.90
51996;DHT22;38010;53.264;6.592;2023-03-05T05:56:38;10.90;99.90
51996;DHT22;38010;53.264;6.592;2023-03-05T05:59:04;10.80;99.90
51996;DHT22;38010;53.264;6.592;2023-03-05T06:01:32;10.80;99.90
51996;DHT22;38010;53.264;6.592;2023-03-05T06:03:58;10.90;99.90
51996;DHT22;38010;53.264;6.592;2023-03-05T06:06:25;10.80;99.90
51996;DHT22;38010;53.264;6.592;2023-03-05T06:08:51;10.80;99.90
51996;DHT22;38010;53.264;6.592;2023-03-05T06:11:18;10.80;99.90
51996;DHT22;38010;53.264;6.592;2023-03-05T06:13:44;10.80;99.90
51996;DHT22;38010;53.264;6.592;2023-03-05T06:16:13;10.90;99.90
51996;DHT22;38010;53.264;6.592;2023-03-05T06:18:39;10.80;99.90
51996;DHT22;38010;53.264;6.592;2023-03-05T06:21:07;10.80;99.90
51996;DHT22;38010;53.264;6.592;2023-03-05T06:23:33;10.90;99.90
51996;DHT22;38010;53.264;6.592;2023-03-05T06:26:01;10.80;99.90
51996;DHT22;38010;53.264;6.592;2023-03-05T06:28:28;10.80;99.90
51996;DHT22;38010;53.264;6.592;2023-03-05T06:33:26;10.80;99.90
51996;DHT22;38010;53.264;6.592;2023-03-05T06:35:51;10.80;99.90
51996;DHT22;38010;53.264;6.592;2023-03-05T06:38:17;10.80;99.90
51996;DHT22;38010;53.264;6.592;2023-03-05T06:40:43;10.80;99.90
51996;DHT22;38010;53.264;6.592;2023-03-05T06:43:08;10.80;99.90
51996;DHT22;38010;53.264;6.592;2023-03-05T06:45:34;10.80;99.90
51996;DHT22;38010;53.264;6.592;2023-03-05T06:48:00;10.80;99.90
51996;DHT22;38010;53.264;6.592;2023-03-05T06:50:26;10.90;99.90
51996;DHT22;38010;53.264;6.592;2023-03-05T06:52:51;10.80;99.90
51996;DHT22;38010;53.264;6.592;2023-03-05T06:55:18;10.80;99.90
51996;DHT22;38010;53.264;6.592;2023-03-05T06:57:44;10.80;99.90
51996;DHT22;38010;53.264;6.592;2023-03-05T07:00:10;10.80;99.90
51996;DHT22;38010;53.264;6.592;2023-03-05T07:02:39;10.80;99.90
51996;DHT22;38010;53.264;6.592;2023-03-05T07:05:06;10.80;99.90
51996;DHT22;38010;53.264;6.592;2023-03-05T07:07:32;10.80;99.90
51996;DHT22;38010;53.264;6.592;2023-03-05T07:09:58;10.80;99.90
51996;DHT22;38010;53.264;6.592;2023-03-05T07:12:24;10.80;99.90
51996;DHT22;38010;53.264;6.592;2023-03-05T07:14:50;10.80;99.90
51996;DHT22;38010;53.264;6.592;2023-03-05T07:17:16;10.80;99.90
51996;DHT22;38010;53.264;6.592;2023-03-05T07:19:42;10.80;99.90
51996;DHT22;38010;53.264;6.592;2023-03-05T07:22:08;10.80;99.90
51996;DHT22;38010;53.264;6.592;2023-03-05T07:24:34;10.80;99.90
51996;DHT22;38010;53.264;6.592;2023-03-05T07:27:00;10.80;99.90
51996;DHT22;38010;53.264;6.592;2023-03-05T07:29:26;10.80;99.90
51996;DHT22;38010;53.264;6.592;2023-03-05T07:31:53;10.90;99.90
51996;DHT22;38010;53.264;6.592;2023-03-05T07:34:20;10.80;99.90
51996;DHT22;38010;53.264;6.592;2023-03-05T07:36:49;10.90;99.90
51996;DHT22;38010;53.264;6.592;2023-03-05T07:39:15;10.90;99.90
51996;DHT22;38010;53.264;6.592;2023-03-05T07:41:44;10.90;99.90
51996;DHT22;38010;53.264;6.592;2023-03-05T07:44:10;10.80;99.90
51996;DHT22;38010;53.264;6.592;2023-03-05T07:46:35;10.90;99.90
51996;DHT22;38010;53.264;6.592;2023-03-05T07:49:01;10.90;99.90
51996;DHT22;38010;53.264;6.592;2023-03-05T07:51:27;10.90;99.90
51996;DHT22;38010;53.264;6.592;2023-03-05T07:53:55;10.90;99.90
51996;DHT22;38010;53.264;6.592;2023-03-05T07:56:27;10.90;99.90
51996;DHT22;38010;53.264;6.592;2023-03-05T07:58:56;10.90;99.90
51996;DHT22;38010;53.264;6.592;2023-03-05T08:01:22;10.90;99.90
51996;DHT22;38010;53.264;6.592;2023-03-05T08:03:48;10.90;99.90
51996;DHT22;38010;53.264;6.592;2023-03-05T08:06:14;10.90;99.90
51996;DHT22;38010;53.264;6.592;2023-03-05T08:08:40;10.90;99.90
51996;DHT22;38010;53.264;6.592;2023-03-05T08:11:09;10.90;99.90
51996;DHT22;38010;53.264;6.592;2023-03-05T08:13:36;10.90;99.90
51996;DHT22;38010;53.264;6.592;2023-03-05T08:16:18;10.90;99.90
51996;DHT22;38010;53.264;6.592;2023-03-05T08:18:45;10.90;99.90
51996;DHT22;38010;53.264;6.592;2023-03-05T08:21:25;10.90;99.90
51996;DHT22;38010;53.264;6.592;2023-03-05T08:23:57;10.90;99.90
51996;DHT22;38010;53.264;6.592;2023-03-05T08:26:25;10.90;99.90
51996;DHT22;38010;53.264;6.592;2023-03-05T08:28:51;10.90;99.90
51996;DHT22;38010;53.264;6.592;2023-03-05T08:31:20;10.90;99.90
51996;DHT22;38010;53.264;6.592;2023-03-05T08:33:47;10.90;99.90
51996;DHT22;38010;53.264;6.592;2023-03-05T08:36:13;10.90;99.90
51996;DHT22;38010;53.264;6.592;2023-03-05T08:38:39;10.90;99.90
51996;DHT22;38010;53.264;6.592;2023-03-05T08:41:05;10.90;99.90
51996;DHT22;38010;53.264;6.592;2023-03-05T08:43:31;11.00;99.90
51996;DHT22;38010;53.264;6.592;2023-03-05T08:45:58;11.00;99.90
51996;DHT22;38010;53.264;6.592;2023-03-05T08:48:25;11.00;99.90
51996;DHT22;38010;53.264;6.592;2023-03-05T08:50:50;11.00;99.90
51996;DHT22;38010;53.264;6.592;2023-03-05T08:53:17;11.00;99.90
51996;DHT22;38010;53.264;6.592;2023-03-05T08:55:43;11.00;99.90
51996;DHT22;38010;53.264;6.592;2023-03-05T08:58:09;11.00;99.90
51996;DHT22;38010;53.264;6.592;2023-03-05T09:00:35;11.00;99.90
51996;DHT22;38010;53.264;6.592;2023-03-05T09:03:00;11.00;99.90
51996;DHT22;38010;53.264;6.592;2023-03-05T09:05:26;11.00;99.90
51996;DHT22;38010;53.264;6.592;2023-03-05T09:07:52;11.00;99.90
51996;DHT22;38010;53.264;6.592;2023-03-05T09:10:18;11.00;99.90
51996;DHT22;38010;53.264;6.592;2023-03-05T09:12:43;11.00;99.90
51996;DHT22;38010;53.264;6.592;2023-03-05T09:15:10;11.00;99.90
51996;DHT22;38010;53.264;6.592;2023-03-05T09:17:37;11.00;99.90
51996;DHT22;38010;53.264;6.592;2023-03-05T09:20:05;11.00;99.90
51996;DHT22;38010;53.264;6.592;2023-03-05T09:22:31;11.10;99.90
51996;DHT22;38010;53.264;6.592;2023-03-05T09:24:57;11.10;99.90
51996;DHT22;38010;53.264;6.592;2023-03-05T09:27:22;11.00;99.90
51996;DHT22;38010;53.264;6.592;2023-03-05T09:29:48;11.00;99.90
51996;DHT22;38010;53.264;6.592;2023-03-05T09:32:15;11.10;99.90
51996;DHT22;38010;53.264;6.592;2023-03-05T09:34:40;11.10;99.90
51996;DHT22;38010;53.264;6.592;2023-03-05T09:37:07;11.00;99.90
51996;DHT22;38010;53.264;6.592;2023-03-05T09:39:33;11.10;99.90
51996;DHT22;38010;53.264;6.592;2023-03-05T09:44:46;11.10;99.90
51996;DHT22;38010;53.264;6.592;2023-03-05T09:47:20;11.10;99.90
51996;DHT22;38010;53.264;6.592;2023-03-05T09:52:46;11.10;99.90
51996;DHT22;38010;53.264;6.592;2023-03-05T09:55:28;11.10;99.90
51996;DHT22;38010;53.264;6.592;2023-03-05T09:58:03;11.10;99.90
51996;DHT22;38010;53.264;6.592;2023-03-05T10:00:34;11.10;99.90
51996;DHT22;38010;53.264;6.592;2023-03-05T10:03:10;11.10;99.90
51996;DHT22;38010;53.264;6.592;2023-03-05T10:08:18;11.10;99.90
51996;DHT22;38010;53.264;6.592;2023-03-05T10:10:51;11.10;99.90
51996;DHT22;38010;53.264;6.592;2023-03-05T10:13:35;11.20;99.90
51996;DHT22;38010;53.264;6.592;2023-03-05T10:21:34;11.10;99.90
51996;DHT22;38010;53.264;6.592;2023-03-05T10:24:12;11.10;99.90
51996;DHT22;38010;53.264;6.592;2023-03-05T10:27:04;11.20;99.90
51996;DHT22;38010;53.264;6.592;2023-03-05T10:38:02;11.20;99.90
51996;DHT22;38010;53.264;6.592;2023-03-05T10:40:48;11.20;99.90
51996;DHT22;38010;53.264;6.592;2023-03-05T10:45:57;11.20;99.90
51996;DHT22;38010;53.264;6.592;2023-03-05T10:48:27;11.20;99.90
51996;DHT22;38010;53.264;6.592;2023-03-05T10:53:35;11.20;99.90
51996;DHT22;38010;53.264;6.592;2023-03-05T10:56:04;11.20;99.90
51996;DHT22;38010;53.264;6.592;2023-03-05T10:58:31;11.20;99.90
51996;DHT22;38010;53.264;6.592;2023-03-05T11:08:52;11.30;99.90
51996;DHT22;38010;53.264;6.592;2023-03-05T11:11:20;11.30;99.90
51996;DHT22;38010;53.264;6.592;2023-03-05T11:13:59;11.30;99.90
51996;DHT22;38010;53.264;6.592;2023-03-05T11:16:28;11.30;99.90
51996;DHT22;38010;53.264;6.592;2023-03-05T11:21:38;11.30;99.90
51996;DHT22;38010;53.264;6.592;2023-03-05T11:26:34;11.40;99.90
51996;DHT22;38010;53.264;6.592;2023-03-05T11:29:01;11.40;99.90
51996;DHT22;38010;53.264;6.592;2023-03-05T11:31:31;11.40;99.90
51996;DHT22;38010;53.264;6.592;2023-03-05T12:04:19;11.50;99.90
51996;DHT22;38010;53.264;6.592;2023-03-05T12:06:54;11.40;99.90
51996;DHT22;38010;53.264;6.592;2023-03-05T12:09:41;11.50;99.90
51996;DHT22;38010;53.264;6.592;2023-03-05T12:23:23;11.50;99.90
51996;DHT22;38010;53.264;6.592;2023-03-05T12:25:57;11.50;99.90
51996;DHT22;38010;53.264;6.592;2023-03-05T12:31:00;11.50;99.90
51996;DHT22;38010;53.264;6.592;2023-03-05T12:33:33;11.60;99.90
51996;DHT22;38010;53.264;6.592;2023-03-05T12:38:50;11.60;99.90
51996;DHT22;38010;53.264;6.592;2023-03-05T12:41:32;11.60;99.90
51996;DHT22;38010;53.264;6.592;2023-03-05T12:51:52;11.70;99.90
51996;DHT22;38010;53.264;6.592;2023-03-05T12:54:31;11.70;99.90
51996;DHT22;38010;53.264;6.592;2023-03-05T12:57:00;11.70;99.90
51996;DHT22;38010;53.264;6.592;2023-03-05T12:59:54;11.70;99.90
51996;DHT22;38010;53.264;6.592;2023-03-05T13:02:27;11.70;99.90
51996;DHT22;38010;53.264;6.592;2023-03-05T13:05:03;11.80;99.90
51996;DHT22;38010;53.264;6.592;2023-03-05T13:07:31;11.80;99.90
51996;DHT22;38010;53.264;6.592;2023-03-05T13:09:58;11.80;99.90
51996;DHT22;38010;53.264;6.592;2023-03-05T13:12:26;11.80;99.90
51996;DHT22;38010;53.264;6.592;2023-03-05T13:15:01;11.80;99.90
51996;DHT22;38010;53.264;6.592;2023-03-05T13:17:40;11.90;99.90
51996;DHT22;38010;53.264;6.592;2023-03-05T13:23:24;11.90;99.90
51996;DHT22;38010;53.264;6.592;2023-03-05T13:26:11;11.90;99.90
51996;DHT22;38010;53.264;6.592;2023-03-05T13:28:40;11.90;99.90
51996;DHT22;38010;53.264;6.592;2023-03-05T13:31:18;12.00;99.90
51996;DHT22;38010;53.264;6.592;2023-03-05T13:34:13;11.90;99.90
51996;DHT22;38010;53.264;6.592;2023-03-05T13:37:13;11.90;99.90
51996;DHT22;38010;53.264;6.592;2023-03-05T13:39:48;11.90;99.90
51996;DHT22;38010;53.264;6.592;2023-03-05T13:42:17;12.00;99.90
51996;DHT22;38010;53.264;6.592;2023-03-05T13:44:53;12.00;99.90
51996;DHT22;38010;53.264;6.592;2023-03-05T13:47:21;12.00;99.90
51996;DHT22;38010;53.264;6.592;2023-03-05T13:49:55;12.00;99.90
51996;DHT22;38010;53.264;6.592;2023-03-05T13:52:25;12.00;99.90
51996;DHT22;38010;53.264;6.592;2023-03-05T13:54:52;12.00;99.90
51996;DHT22;38010;53.264;6.592;2023-03-05T13:57:40;12.00;99.90
51996;DHT22;38010;53.264;6.592;2023-03-05T14:00:34;12.00;99.90
51996;DHT22;38010;53.264;6.592;2023-03-05T14:03:08;12.00;99.90
51996;DHT22;38010;53.264;6.592;2023-03-05T14:05:35;12.00;99.90
51996;DHT22;38010;53.264;6.592;2023-03-05T14:08:01;12.00;99.90
51996;DHT22;38010;53.264;6.592;2023-03-05T14:10:37;12.00;99.90
51996;DHT22;38010;53.264;6.592;2023-03-05T14:13:18;12.10;99.90
51996;DHT22;38010;53.264;6.592;2023-03-05T14:16:11;12.10;99.90
51996;DHT22;38010;53.264;6.592;2023-03-05T14:18:38;12.20;99.90
51996;DHT22;38010;53.264;6.592;2023-03-05T14:21:09;12.30;99.90
51996;DHT22;38010;53.264;6.592;2023-03-05T14:23:42;12.20;99.90
51996;DHT22;38010;53.264;6.592;2023-03-05T14:31:27;12.20;99.90
51996;DHT22;38010;53.264;6.592;2023-03-05T14:34:02;12.20;99.90
51996;DHT22;38010;53.264;6.592;2023-03-05T14:36:29;12.10;99.90
51996;DHT22;38010;53.264;6.592;2023-03-05T14:38:55;12.10;99.90
51996;DHT22;38010;53.264;6.592;2023-03-05T14:44:04;12.10;99.90
51996;DHT22;38010;53.264;6.592;2023-03-05T14:46:33;12.10;99.90
51996;DHT22;38010;53.264;6.592;2023-03-05T14:48:59;12.10;99.90
51996;DHT22;38010;53.264;6.592;2023-03-05T14:51:24;12.10;99.90
51996;DHT22;38010;53.264;6.592;2023-03-05T14:53:50;12.10;99.90
51996;DHT22;38010;53.264;6.592;2023-03-05T14:56:17;12.10;99.90
51996;DHT22;38010;53.264;6.592;2023-03-05T14:58:46;12.20;99.90
51996;DHT22;38010;53.264;6.592;2023-03-05T15:01:12;12.20;99.90
51996;DHT22;38010;53.264;6.592;2023-03-05T15:03:38;12.10;99.90
51996;DHT22;38010;53.264;6.592;2023-03-05T15:06:08;12.20;99.90
51996;DHT22;38010;53.264;6.592;2023-03-05T15:08:38;12.20;99.90
51996;DHT22;38010;53.264;6.592;2023-03-05T15:11:04;12.20;99.90
51996;DHT22;38010;53.264;6.592;2023-03-05T15:13:31;12.20;99.90
51996;DHT22;38010;53.264;6.592;2023-03-05T15:15:57;12.30;99.90
51996;DHT22;38010;53.264;6.592;2023-03-05T15:18:23;12.30;99.90
51996;DHT22;38010;53.264;6.592;2023-03-05T15:20:49;12.30;99.90
51996;DHT22;38010;53.264;6.592;2023-03-05T15:23:19;12.20;99.90
51996;DHT22;38010;53.264;6.592;2023-03-05T15:25:45;12.20;99.90
51996;DHT22;38010;53.264;6.592;2023-03-05T15:28:10;12.20;99.90
51996;DHT22;38010;53.264;6.592;2023-03-05T15:30:39;12.20;99.90
51996;DHT22;38010;53.264;6.592;2023-03-05T15:33:09;12.20;99.90
51996;DHT22;38010;53.264;6.592;2023-03-05T15:35:35;12.20;99.90
51996;DHT22;38010;53.264;6.592;2023-03-05T15:38:00;12.10;99.90
51996;DHT22;38010;53.264;6.592;2023-03-05T15:40:27;12.10;99.90
51996;DHT22;38010;53.264;6.592;2023-03-05T15:42:54;12.10;99.90
51996;DHT22;38010;53.264;6.592;2023-03-05T15:45:20;12.20;99.90
51996;DHT22;38010;53.264;6.592;2023-03-05T15:47:50;12.20;99.90
51996;DHT22;38010;53.264;6.592;2023-03-05T15:50:16;12.40;99.90
51996;DHT22;38010;53.264;6.592;2023-03-05T15:52:41;12.40;99.90
51996;DHT22;38010;53.264;6.592;2023-03-05T15:55:08;12.50;99.90
51996;DHT22;38010;53.264;6.592;2023-03-05T15:57:37;12.50;99.90
51996;DHT22;38010;53.264;6.592;2023-03-05T16:00:05;12.50;99.90
51996;DHT22;38010;53.264;6.592;2023-03-05T16:02:31;12.50;99.90
51996;DHT22;38010;53.264;6.592;2023-03-05T16:04:57;12.50;99.90
51996;DHT22;38010;53.264;6.592;2023-03-05T16:07:23;12.40;99.90
51996;DHT22;38010;53.264;6.592;2023-03-05T16:09:49;12.40;99.90
51996;DHT22;38010;53.264;6.592;2023-03-05T16:12:22;12.40;99.90
51996;DHT22;38010;53.264;6.592;2023-03-05T16:14:50;12.30;99.90
51996;DHT22;38010;53.264;6.592;2023-03-05T16:17:17;12.30;99.90
51996;DHT22;38010;53.264;6.592;2023-03-05T16:19:46;12.20;99.90
51996;DHT22;38010;53.264;6.592;2023-03-05T16:22:13;12.30;99.90
51996;DHT22;38010;53.264;6.592;2023-03-05T16:24:38;12.20;99.90
51996;DHT22;38010;53.264;6.592;2023-03-05T16:27:04;12.20;99.90
51996;DHT22;38010;53.264;6.592;2023-03-05T16:29:31;12.20;99.90
51996;DHT22;38010;53.264;6.592;2023-03-05T16:31:57;12.10;99.90
51996;DHT22;38010;53.264;6.592;2023-03-05T16:34:23;12.10;99.90
51996;DHT22;38010;53.264;6.592;2023-03-05T16:36:50;12.10;99.90
51996;DHT22;38010;53.264;6.592;2023-03-05T16:39:18;12.10;99.90
51996;DHT22;38010;53.264;6.592;2023-03-05T16:41:44;12.10;99.90
51996;DHT22;38010;53.264;6.592;2023-03-05T16:44:10;12.10;99.90
51996;DHT22;38010;53.264;6.592;2023-03-05T16:46:37;12.10;99.90
51996;DHT22;38010;53.264;6.592;2023-03-05T16:49:04;12.10;99.90
51996;DHT22;38010;53.264;6.592;2023-03-05T16:51:30;12.10;99.90
51996;DHT22;38010;53.264;6.592;2023-03-05T16:53:56;12.00;99.90
51996;DHT22;38010;53.264;6.592;2023-03-05T16:56:21;12.00;99.90
51996;DHT22;38010;53.264;6.592;2023-03-05T16:58:47;12.00;99.90
51996;DHT22;38010;53.264;6.592;2023-03-05T17:01:18;12.00;99.90
51996;DHT22;38010;53.264;6.592;2023-03-05T17:03:47;12.00;99.90
51996;DHT22;38010;53.264;6.592;2023-03-05T17:06:27;12.00;99.90
51996;DHT22;38010;53.264;6.592;2023-03-05T17:08:53;12.00;99.90
51996;DHT22;38010;53.264;6.592;2023-03-05T17:11:20;11.90;99.90
51996;DHT22;38010;53.264;6.592;2023-03-05T17:13:46;11.90;99.90
51996;DHT22;38010;53.264;6.592;2023-03-05T17:16:13;11.90;99.90
51996;DHT22;38010;53.264;6.592;2023-03-05T17:18:40;11.90;99.90
51996;DHT22;38010;53.264;6.592;2023-03-05T17:21:06;11.90;99.90
51996;DHT22;38010;53.264;6.592;2023-03-05T17:23:34;11.90;99.90
51996;DHT22;38010;53.264;6.592;2023-03-05T17:26:04;11.90;99.90
51996;DHT22;38010;53.264;6.592;2023-03-05T17:28:30;11.90;99.90
51996;DHT22;38010;53.264;6.592;2023-03-05T17:30:56;11.80;99.90
51996;DHT22;38010;53.264;6.592;2023-03-05T17:33:24;11.80;99.90
51996;DHT22;38010;53.264;6.592;2023-03-05T17:35:51;11.80;99.90